createdAt,value
2022-10-14T00:01:03.920Z,6.50
2022-10-14T00:03:33.176Z,7.47
2022-10-14T00:05:59.890Z,7.00
2022-10-14T00:08:26.815Z,6.83
2022-10-14T00:10:54.315Z,6.47
2022-10-14T00:13:21.016Z,7.20
2022-10-14T00:15:47.989Z,6.87
2022-10-14T00:18:16.697Z,6.87
2022-10-14T00:20:54.151Z,6.67
2022-10-14T00:23:20.901Z,6.40
2022-10-14T00:25:47.775Z,6.50
2022-10-14T00:28:14.558Z,6.57
2022-10-14T00:30:41.267Z,6.50
2022-10-14T00:33:09.180Z,5.87
2022-10-14T00:35:35.816Z,5.87
2022-10-14T00:38:02.586Z,6.17
2022-10-14T00:40:29.333Z,5.80
2022-10-14T00:42:56.028Z,6.40
2022-10-14T00:45:24.219Z,5.60
2022-10-14T00:47:52.813Z,5.37
2022-10-14T00:50:20.389Z,5.40
2022-10-14T00:52:47.381Z,5.17
2022-10-14T00:55:17.110Z,4.90
2022-10-14T00:57:44.324Z,4.97
2022-10-14T01:00:17.097Z,5.10
2022-10-14T01:02:44.174Z,4.70
2022-10-14T01:05:13.073Z,4.90
2022-10-14T01:08:09.050Z,5.00
2022-10-14T01:10:43.161Z,4.60
2022-10-14T01:13:15.867Z,5.27
2022-10-14T01:15:48.734Z,4.87
2022-10-14T01:18:29.345Z,4.70
2022-10-14T01:21:08.080Z,4.67
2022-10-14T01:23:46.926Z,5.07
2022-10-14T01:26:38.352Z,4.37
2022-10-14T01:29:13.877Z,4.83
2022-10-14T01:31:46.400Z,4.97
2022-10-14T01:34:15.382Z,5.63
2022-10-14T01:36:56.921Z,5.13
2022-10-14T01:39:26.518Z,4.70
2022-10-14T01:41:57.004Z,5.60
2022-10-14T01:44:24.834Z,4.83
2022-10-14T01:46:54.375Z,5.17
2022-10-14T01:49:31.655Z,5.13
2022-10-14T01:52:13.010Z,5.23
2022-10-14T01:54:43.252Z,5.43
2022-10-14T01:57:14.735Z,5.20
2022-10-14T01:59:43.521Z,5.20
2022-10-14T02:02:12.462Z,5.30
2022-10-14T02:04:41.104Z,5.50
2022-10-14T02:07:15.765Z,5.10
2022-10-14T02:10:04.274Z,5.27
2022-10-14T02:12:50.739Z,5.20
2022-10-14T02:15:23.484Z,5.03
2022-10-14T02:18:08.816Z,5.63
2022-10-14T02:20:41.038Z,5.43
2022-10-14T02:23:17.098Z,6.00
2022-10-14T02:25:46.096Z,5.83
2022-10-14T02:28:18.311Z,5.70
2022-10-14T02:30:51.316Z,6.10
2022-10-14T02:33:21.027Z,5.63
2022-10-14T02:35:49.026Z,6.37
2022-10-14T02:38:16.311Z,6.37
2022-10-14T02:40:46.208Z,5.80
2022-10-14T02:43:13.252Z,6.33
2022-10-14T02:45:41.601Z,6.10
2022-10-14T02:48:09.044Z,6.53
2022-10-14T02:50:37.824Z,6.37
2022-10-14T02:53:04.588Z,5.53
2022-10-14T02:55:31.250Z,6.30
2022-10-14T02:57:59.290Z,6.33
2022-10-14T03:00:26.756Z,6.07
2022-10-14T03:02:55.063Z,6.43
2022-10-14T03:05:21.862Z,5.93
2022-10-14T03:07:49.534Z,6.50
2022-10-14T03:10:18.539Z,5.83
2022-10-14T03:12:46.802Z,6.20
2022-10-14T03:15:22.599Z,5.50
2022-10-14T03:17:50.005Z,5.73
2022-10-14T03:20:20.794Z,5.40
2022-10-14T03:22:52.207Z,4.87
2022-10-14T03:25:19.209Z,5.20
2022-10-14T03:28:04.437Z,4.80
2022-10-14T03:30:41.774Z,5.07
2022-10-14T03:33:15.269Z,5.03
2022-10-14T03:35:49.235Z,5.00
2022-10-14T03:38:19.623Z,5.20
2022-10-14T03:40:47.894Z,4.77
2022-10-14T03:43:15.547Z,4.70
2022-10-14T03:45:50.303Z,4.80
2022-10-14T03:48:19.762Z,5.00
2022-10-14T03:50:49.918Z,4.63
2022-10-14T03:53:19.151Z,4.77
2022-10-14T03:55:46.185Z,4.63
2022-10-14T03:58:13.368Z,4.70
2022-10-14T04:00:47.341Z,4.70
2022-10-14T04:03:27.838Z,4.63
2022-10-14T04:05:55.988Z,5.03
2022-10-14T04:08:25.413Z,4.27
2022-10-14T04:11:18.373Z,4.63
2022-10-14T04:13:46.728Z,4.77
2022-10-14T04:16:13.553Z,5.13
2022-10-14T04:18:58.585Z,4.50
2022-10-14T04:21:25.681Z,4.90
2022-10-14T04:23:53.474Z,4.23
2022-10-14T04:26:32.252Z,4.50
2022-10-14T04:28:59.321Z,4.23
2022-10-14T04:31:35.124Z,4.33
2022-10-14T04:34:03.408Z,4.80
2022-10-14T04:36:35.511Z,5.00
2022-10-14T04:39:04.007Z,5.23
2022-10-14T04:41:30.855Z,4.53
2022-10-14T04:44:00.445Z,5.27
2022-10-14T04:46:36.057Z,4.93
2022-10-14T04:49:02.958Z,5.27
2022-10-14T04:51:34.448Z,4.93
2022-10-14T04:54:22.610Z,5.03
2022-10-14T04:56:54.431Z,5.43
2022-10-14T04:59:21.344Z,5.17
2022-10-14T05:02:01.302Z,5.50
2022-10-14T05:04:38.130Z,5.90
2022-10-14T05:07:05.783Z,6.03
2022-10-14T05:09:33.460Z,5.87
2022-10-14T05:12:00.885Z,5.80
2022-10-14T05:14:38.024Z,6.20
2022-10-14T05:17:16.155Z,6.03
2022-10-14T05:19:43.043Z,5.77
2022-10-14T05:22:10.160Z,6.03
2022-10-14T05:24:41.940Z,5.90
2022-10-14T05:27:08.642Z,6.40
2022-10-14T05:29:35.298Z,6.13
2022-10-14T05:32:03.122Z,5.97
2022-10-14T05:34:36.256Z,6.60
2022-10-14T05:37:05.076Z,6.50
2022-10-14T05:39:40.945Z,6.10
2022-10-14T05:42:08.054Z,6.33
2022-10-14T05:44:35.200Z,6.73
2022-10-14T05:47:03.084Z,6.60
2022-10-14T05:49:29.810Z,6.83
2022-10-14T05:51:58.077Z,6.47
2022-10-14T05:54:24.881Z,7.07
2022-10-14T05:56:54.149Z,6.37
2022-10-14T05:59:23.275Z,7.10
2022-10-14T06:01:50.118Z,7.20
2022-10-14T06:04:19.550Z,6.90
2022-10-14T06:06:46.311Z,7.40
2022-10-14T06:09:14.806Z,6.80
2022-10-14T06:11:41.987Z,7.10
2022-10-14T06:14:08.868Z,7.40
2022-10-14T06:16:35.898Z,6.93
2022-10-14T06:19:05.489Z,6.90
2022-10-14T06:21:32.364Z,6.13
2022-10-14T06:23:59.109Z,7.30
2022-10-14T06:26:25.893Z,6.70
2022-10-14T06:28:52.890Z,6.07
2022-10-14T06:31:20.809Z,7.10
2022-10-14T06:33:47.592Z,7.33
2022-10-14T06:36:14.270Z,6.73
2022-10-14T06:38:40.939Z,6.97
2022-10-14T06:41:07.776Z,6.77
2022-10-14T06:43:35.870Z,6.63
2022-10-14T06:46:03.746Z,7.37
2022-10-14T06:48:30.920Z,6.80
2022-10-14T06:51:01.990Z,7.70
2022-10-14T06:53:29.737Z,7.70
2022-10-14T06:56:04.899Z,7.23
2022-10-14T06:58:32.348Z,7.37
2022-10-14T07:01:04.062Z,6.57
2022-10-14T07:03:31.181Z,7.13
2022-10-14T07:05:58.730Z,7.23
2022-10-14T07:08:25.439Z,6.97
2022-10-14T07:10:55.037Z,7.27
2022-10-14T07:13:21.853Z,7.40
2022-10-14T07:15:52.503Z,7.40
2022-10-14T07:18:19.858Z,7.73
2022-10-14T07:20:46.811Z,7.77
2022-10-14T07:23:13.752Z,7.40
2022-10-14T07:25:40.607Z,8.20
2022-10-14T07:28:07.448Z,7.50
2022-10-14T07:30:34.501Z,8.07
2022-10-14T07:33:01.663Z,7.17
2022-10-14T07:35:28.750Z,7.57
2022-10-14T07:37:55.692Z,7.20
2022-10-14T07:40:22.551Z,7.13
2022-10-14T07:42:49.599Z,7.70
2022-10-14T07:45:18.454Z,7.17
2022-10-14T07:47:47.963Z,7.47
2022-10-14T07:50:14.704Z,7.67
2022-10-14T07:52:41.441Z,7.47
2022-10-14T07:55:08.359Z,6.17
2022-10-14T07:57:35.022Z,7.33
2022-10-14T08:00:01.890Z,7.60
2022-10-14T08:02:38.728Z,6.33
2022-10-14T08:05:33.056Z,6.30
2022-10-14T08:07:52.531Z,6.13
2022-10-14T08:10:19.237Z,6.77
2022-10-14T08:12:46.310Z,6.67
2022-10-14T08:15:13.068Z,6.40
2022-10-14T08:17:39.739Z,6.17
2022-10-14T08:20:06.964Z,6.07
2022-10-14T08:22:33.830Z,6.13
2022-10-14T08:25:00.644Z,5.70
2022-10-14T08:27:27.460Z,5.67
2022-10-14T08:29:54.622Z,5.10
2022-10-14T08:32:23.472Z,5.10
2022-10-14T08:34:50.630Z,5.00
2022-10-14T08:37:17.338Z,5.70
2022-10-14T08:39:43.974Z,5.17
2022-10-14T08:42:20.990Z,4.73
2022-10-14T08:45:01.277Z,5.23
2022-10-14T08:47:40.383Z,5.23
2022-10-14T08:50:29.157Z,5.27
2022-10-14T08:52:58.472Z,4.47
2022-10-14T08:55:45.002Z,4.20
2022-10-14T08:58:28.967Z,3.70
2022-10-14T09:00:56.514Z,3.50
2022-10-14T09:03:33.424Z,3.60
2022-10-14T09:06:03.071Z,3.40
2022-10-14T09:08:42.434Z,3.23
2022-10-14T09:11:24.294Z,3.50
2022-10-14T09:13:54.403Z,3.40
2022-10-14T09:16:33.374Z,3.03
2022-10-14T09:19:02.584Z,3.17
2022-10-14T09:21:59.330Z,3.20
2022-10-14T09:24:27.926Z,3.10
2022-10-14T09:27:18.982Z,3.30
2022-10-14T09:30:01.610Z,3.17
2022-10-14T09:32:41.339Z,2.60
2022-10-14T09:35:17.379Z,3.33
2022-10-14T09:37:44.135Z,3.17
2022-10-14T09:40:14.030Z,3.20
2022-10-14T09:43:01.029Z,3.17
2022-10-14T09:45:29.943Z,3.70
2022-10-14T09:48:07.229Z,2.60
2022-10-14T09:50:42.690Z,2.50
2022-10-14T09:53:19.145Z,2.70
2022-10-14T09:55:49.940Z,2.57
2022-10-14T09:58:18.837Z,2.50
2022-10-14T10:00:46.324Z,2.47
2022-10-14T10:03:28.462Z,2.43
2022-10-14T10:06:01.305Z,2.73
2022-10-14T10:08:28.158Z,2.40
2022-10-14T10:11:10.550Z,2.70
2022-10-14T10:13:41.465Z,2.27
2022-10-14T10:16:18.909Z,2.37
2022-10-14T10:18:45.713Z,2.57
2022-10-14T10:21:32.153Z,2.97
2022-10-14T10:24:04.705Z,3.03
2022-10-14T10:26:34.108Z,2.57
2022-10-14T10:29:03.058Z,2.57
2022-10-14T10:31:54.451Z,2.80
2022-10-14T10:34:30.109Z,2.50
2022-10-14T10:37:22.761Z,2.60
2022-10-14T10:40:12.933Z,2.63
2022-10-14T10:42:52.060Z,2.10
2022-10-14T10:45:55.057Z,2.20
2022-10-14T10:48:41.433Z,1.93
2022-10-14T10:51:15.187Z,2.10
2022-10-14T10:53:51.437Z,2.10
2022-10-14T10:56:38.834Z,1.90
2022-10-14T10:59:27.369Z,1.87
2022-10-14T11:02:17.060Z,2.10
2022-10-14T11:04:55.932Z,1.67
2022-10-14T11:08:00.519Z,1.93
2022-10-14T11:10:53.682Z,1.60
2022-10-14T11:13:40.638Z,1.87
2022-10-14T11:16:07.769Z,1.70
2022-10-14T11:18:45.554Z,1.80
2022-10-14T11:21:23.380Z,2.00
2022-10-14T11:24:10.540Z,1.77
2022-10-14T11:26:37.618Z,2.00
2022-10-14T11:29:19.437Z,2.07
2022-10-14T11:31:58.734Z,2.13
2022-10-14T11:34:41.248Z,1.87
2022-10-14T11:37:16.812Z,1.70
2022-10-14T11:39:50.458Z,1.93
2022-10-14T11:42:27.111Z,2.17
2022-10-14T11:45:10.727Z,1.80
2022-10-14T11:47:39.591Z,1.50
2022-10-14T11:50:18.971Z,1.50
2022-10-14T11:53:13.233Z,1.70
2022-10-14T11:55:44.706Z,2.00
2022-10-14T11:58:24.335Z,1.83
2022-10-14T12:00:54.044Z,1.60
2022-10-14T12:03:45.761Z,1.80
2022-10-14T12:06:19.621Z,1.47
2022-10-14T12:08:48.709Z,1.30
2022-10-14T12:11:23.633Z,1.13
2022-10-14T12:13:54.273Z,1.53
2022-10-14T12:16:23.263Z,1.80
2022-10-14T12:18:56.183Z,1.30
2022-10-14T12:21:41.099Z,1.40
2022-10-14T12:24:14.828Z,1.50
2022-10-14T12:26:50.488Z,1.70
2022-10-14T12:29:38.002Z,2.00
2022-10-14T12:32:04.649Z,2.20
2022-10-14T12:34:34.922Z,2.37
2022-10-14T12:37:28.752Z,2.60
2022-10-14T12:40:06.746Z,3.17
2022-10-14T12:42:53.738Z,3.20
2022-10-14T12:45:22.025Z,4.30
2022-10-14T12:48:08.480Z,3.60
2022-10-14T12:50:40.008Z,4.03
2022-10-14T12:53:15.358Z,4.70
2022-10-14T12:55:54.534Z,4.33
2022-10-14T12:58:39.297Z,4.60
2022-10-14T13:01:06.177Z,5.20
2022-10-14T13:03:43.756Z,5.23
2022-10-14T13:06:30.983Z,5.30
2022-10-14T13:09:13.003Z,5.10
2022-10-14T13:11:41.604Z,5.17
2022-10-14T13:14:30.109Z,5.27
2022-10-14T13:17:03.572Z,5.40
2022-10-14T13:19:35.204Z,5.40
2022-10-14T13:22:33.427Z,5.17
2022-10-14T13:25:13.553Z,5.20
2022-10-14T13:27:49.708Z,5.40
2022-10-14T13:30:52.968Z,5.23
2022-10-14T13:33:31.192Z,5.20
2022-10-14T13:36:16.302Z,5.10
2022-10-14T13:38:47.052Z,5.40
2022-10-14T13:41:29.801Z,5.00
2022-10-14T13:44:00.292Z,6.27
2022-10-14T13:46:32.597Z,6.00
2022-10-14T13:49:07.512Z,6.03
2022-10-14T13:52:22.438Z,6.23
2022-10-14T13:54:49.746Z,6.70
2022-10-14T13:57:47.742Z,5.67
2022-10-14T14:00:44.930Z,6.30
2022-10-14T14:03:26.473Z,6.40
2022-10-14T14:05:53.638Z,6.67
2022-10-14T14:08:44.658Z,5.97
2022-10-14T14:11:19.198Z,6.40
2022-10-14T14:13:58.975Z,5.20
2022-10-14T14:16:33.573Z,5.50
2022-10-14T14:19:08.443Z,4.90
2022-10-14T14:21:36.537Z,5.90
2022-10-14T14:24:10.552Z,5.03
2022-10-14T14:26:38.845Z,5.00
2022-10-14T14:29:17.895Z,5.10
2022-10-14T14:34:38.949Z,4.80
2022-10-14T14:37:36.786Z,5.43
2022-10-14T14:40:04.444Z,6.30
2022-10-14T14:42:36.116Z,5.00
2022-10-14T14:45:25.476Z,5.70
2022-10-14T14:47:57.515Z,5.20
2022-10-14T14:50:30.919Z,4.70
2022-10-14T14:53:04.882Z,5.60
2022-10-14T14:55:37.943Z,4.90
2022-10-14T14:58:08.292Z,5.60
2022-10-14T15:00:35.018Z,5.20
2022-10-14T15:03:03.774Z,4.60
2022-10-14T15:05:31.754Z,4.60
2022-10-14T15:08:01.769Z,5.00
2022-10-14T15:10:33.800Z,4.57
2022-10-14T15:13:02.602Z,4.70
2022-10-14T15:15:34.022Z,4.40
2022-10-14T15:18:24.645Z,4.00
2022-10-14T15:20:51.609Z,4.27
2022-10-14T15:23:49.640Z,4.27
2022-10-14T15:26:25.332Z,3.97
2022-10-14T15:29:17.213Z,4.63
2022-10-14T15:32:05.475Z,4.80
2022-10-14T15:34:36.949Z,4.43
2022-10-14T15:37:03.680Z,4.10
2022-10-14T15:39:36.587Z,4.07
2022-10-14T15:42:06.140Z,4.37
2022-10-14T15:44:33.907Z,4.17
2022-10-14T15:47:19.421Z,4.27
2022-10-14T15:49:47.106Z,3.90
2022-10-14T15:52:15.942Z,3.50
2022-10-14T15:54:45.763Z,4.03
2022-10-14T15:57:16.654Z,3.60
2022-10-14T15:59:48.164Z,3.50
2022-10-14T16:02:23.891Z,3.33
2022-10-14T16:05:18.348Z,3.87
2022-10-14T16:07:41.450Z,4.20
2022-10-14T16:10:10.481Z,3.93
2022-10-14T16:12:38.001Z,3.43
2022-10-14T16:15:36.405Z,3.33
2022-10-14T16:18:03.440Z,3.50
2022-10-14T16:20:30.814Z,3.20
2022-10-14T16:22:58.868Z,3.30
2022-10-14T16:25:31.023Z,3.23
2022-10-14T16:27:58.595Z,3.20
2022-10-14T16:30:28.207Z,3.30
2022-10-14T16:32:55.256Z,3.13
2022-10-14T16:35:22.599Z,3.20
2022-10-14T16:37:49.859Z,3.27
2022-10-14T16:40:18.598Z,3.30
2022-10-14T16:42:47.031Z,3.20
2022-10-14T16:45:14.722Z,2.70
2022-10-14T16:47:44.421Z,3.00
2022-10-14T16:50:12.479Z,2.93
2022-10-14T16:53:02.244Z,3.13
2022-10-14T16:55:32.757Z,3.20
2022-10-14T16:58:01.218Z,3.80
2022-10-14T17:00:30.588Z,4.80
2022-10-14T17:02:58.784Z,5.00
2022-10-14T17:05:27.469Z,3.60
2022-10-14T17:07:56.871Z,3.53
2022-10-14T17:10:25.498Z,3.53
2022-10-14T17:12:56.100Z,3.40
2022-10-14T17:15:22.939Z,3.37
2022-10-14T17:17:49.771Z,3.47
2022-10-14T17:20:16.556Z,3.83
2022-10-14T17:22:55.484Z,3.70
2022-10-14T17:25:22.428Z,3.37
2022-10-14T17:27:49.446Z,3.60
2022-10-14T17:30:16.816Z,3.67
2022-10-14T17:32:44.238Z,3.50
2022-10-14T17:35:14.418Z,3.57
2022-10-14T17:37:42.468Z,4.20
2022-10-14T17:40:09.667Z,3.33
2022-10-14T17:42:38.480Z,3.80
2022-10-14T17:45:05.659Z,3.97
2022-10-14T17:47:33.427Z,3.87
2022-10-14T17:50:00.057Z,4.17
2022-10-14T17:52:27.066Z,3.80
2022-10-14T17:54:56.422Z,3.93
2022-10-14T17:57:25.855Z,4.53
2022-10-14T17:59:52.726Z,4.57
2022-10-14T18:02:22.733Z,5.07
2022-10-14T18:04:50.489Z,4.57
2022-10-14T18:07:18.937Z,4.53
2022-10-14T18:09:46.296Z,4.40
2022-10-14T18:12:13.248Z,4.27
2022-10-14T18:14:41.052Z,4.70
2022-10-14T18:17:10.944Z,4.73
2022-10-14T18:19:46.025Z,4.67
2022-10-14T18:22:16.913Z,4.83
2022-10-14T18:24:44.202Z,5.00
2022-10-14T18:27:12.093Z,5.10
2022-10-14T18:29:39.287Z,5.03
2022-10-14T18:32:06.254Z,4.90
2022-10-14T18:34:33.030Z,4.83
2022-10-14T18:36:59.930Z,6.67
2022-10-14T18:39:27.156Z,5.90
2022-10-14T18:41:53.894Z,5.90
2022-10-14T18:44:20.767Z,5.87
2022-10-14T18:46:47.864Z,5.10
2022-10-14T18:49:14.826Z,5.67
2022-10-14T18:51:42.206Z,6.60
2022-10-14T18:54:17.976Z,5.40
2022-10-14T18:56:45.296Z,5.80
2022-10-14T18:59:18.293Z,5.47
2022-10-14T19:01:46.644Z,5.60
2022-10-14T19:04:15.174Z,5.93
2022-10-14T19:06:46.228Z,5.27
2022-10-14T19:09:14.019Z,5.73
2022-10-14T19:11:41.669Z,6.10
2022-10-14T19:14:10.722Z,5.87
2022-10-14T19:16:39.011Z,5.43
2022-10-14T19:19:11.620Z,5.50
2022-10-14T19:21:39.546Z,5.70
2022-10-14T19:24:08.427Z,5.70
2022-10-14T19:26:37.827Z,6.90
2022-10-14T19:29:07.800Z,7.57
2022-10-14T19:31:38.972Z,8.03
2022-10-14T19:34:08.700Z,7.73
2022-10-14T19:36:36.752Z,6.93
2022-10-14T19:39:04.415Z,7.63
2022-10-14T19:41:33.433Z,7.20
2022-10-14T19:44:00.705Z,7.10
2022-10-14T19:46:28.707Z,6.67
2022-10-14T19:48:58.092Z,7.47
2022-10-14T19:51:25.567Z,7.17
2022-10-14T19:53:53.957Z,7.23
2022-10-14T19:56:20.915Z,8.13
2022-10-14T19:58:50.654Z,7.53
2022-10-14T20:01:18.656Z,7.30
2022-10-14T20:03:45.598Z,6.73
2022-10-14T20:06:13.537Z,6.30
2022-10-14T20:11:24.466Z,6.00
2022-10-14T20:13:52.106Z,6.00
2022-10-14T20:16:18.957Z,5.17
2022-10-14T20:18:46.074Z,5.80
2022-10-14T20:21:14.462Z,4.67
2022-10-14T20:23:41.853Z,4.13
2022-10-14T20:26:18.455Z,4.87
2022-10-14T20:28:46.426Z,3.93
2022-10-14T20:31:15.603Z,3.83
2022-10-14T20:33:42.878Z,4.50
2022-10-14T20:36:20.097Z,5.10
2022-10-14T20:38:47.903Z,5.10
2022-10-14T20:41:18.420Z,4.77
2022-10-14T20:43:45.906Z,5.20
2022-10-14T20:46:13.041Z,4.50
2022-10-14T20:48:41.405Z,4.33
2022-10-14T20:51:10.478Z,4.20
2022-10-14T20:53:38.220Z,4.23
2022-10-14T20:56:08.747Z,3.47
2022-10-14T20:58:36.090Z,4.67
2022-10-14T21:01:06.766Z,4.30
2022-10-14T21:03:33.685Z,3.80
2022-10-14T21:06:09.368Z,3.47
2022-10-14T21:08:36.929Z,4.23
2022-10-14T21:11:10.545Z,3.90
2022-10-14T21:13:41.386Z,4.07
2022-10-14T21:16:27.365Z,4.37
2022-10-14T21:18:59.716Z,4.60
2022-10-14T21:21:28.606Z,3.73
2022-10-14T21:23:56.294Z,3.90
2022-10-14T21:26:23.442Z,3.47
2022-10-14T21:28:50.269Z,4.27
2022-10-14T21:31:19.267Z,4.80
2022-10-14T21:33:47.899Z,4.23
2022-10-14T21:36:19.113Z,4.23
2022-10-14T21:38:45.977Z,4.90
2022-10-14T21:41:12.908Z,4.37
2022-10-14T21:43:40.257Z,4.57
2022-10-14T21:46:10.146Z,3.83
2022-10-14T21:48:36.924Z,3.57
2022-10-14T21:51:08.787Z,3.43
2022-10-14T21:53:36.029Z,3.30
2022-10-14T21:56:03.064Z,3.80
2022-10-14T21:58:30.652Z,3.57
2022-10-14T22:01:04.861Z,3.30
2022-10-14T22:03:31.967Z,3.40
2022-10-14T22:06:02.235Z,3.60
2022-10-14T22:08:30.884Z,3.90
2022-10-14T22:10:57.898Z,4.10
2022-10-14T22:13:27.483Z,4.17
2022-10-14T22:15:55.033Z,3.80
2022-10-14T22:18:22.557Z,3.47
2022-10-14T22:20:50.991Z,3.63
2022-10-14T22:23:18.472Z,2.97
2022-10-14T22:25:45.956Z,3.77
2022-10-14T22:28:12.866Z,3.80
2022-10-14T22:30:39.567Z,4.17
2022-10-14T22:35:32.937Z,3.67
2022-10-14T22:37:59.761Z,3.30
2022-10-14T22:40:26.900Z,3.53
2022-10-14T22:42:55.310Z,3.50
2022-10-14T22:45:22.044Z,3.70
2022-10-14T22:47:48.739Z,3.90
2022-10-14T22:50:15.536Z,4.40
2022-10-14T22:52:42.478Z,4.63
2022-10-14T22:55:09.811Z,4.33
2022-10-14T22:57:36.802Z,4.37
2022-10-14T23:00:05.244Z,4.33
2022-10-14T23:02:32.119Z,4.87
2022-10-14T23:04:59.421Z,4.93
2022-10-14T23:07:26.508Z,4.60
2022-10-14T23:09:53.176Z,5.50
2022-10-14T23:12:20.122Z,6.03
2022-10-14T23:14:47.132Z,6.00
2022-10-14T23:17:13.954Z,6.07
2022-10-14T23:19:43.456Z,6.40
2022-10-14T23:22:10.127Z,6.87
2022-10-14T23:24:36.778Z,6.77
2022-10-14T23:27:03.837Z,7.50
2022-10-14T23:29:30.625Z,7.60
2022-10-14T23:31:58.240Z,7.77
2022-10-14T23:34:25.687Z,7.73
2022-10-14T23:39:24.572Z,7.93
2022-10-14T23:41:51.607Z,7.33
2022-10-14T23:44:19.303Z,8.50
2022-10-14T23:46:46.807Z,8.63
2022-10-14T23:49:25.508Z,8.27
2022-10-14T23:51:53.766Z,8.60
2022-10-14T23:54:20.497Z,9.13
2022-10-14T23:56:47.233Z,8.63
2022-10-14T23:59:14.257Z,8.90
